Time;durP1;ratioP1;P1;durP2;ratioP2;P2;SDS_P1;SDS_P2;PMS_P1;PMS_P2;Temp;Humidity;BMP_temperature;BMP_pressure;BME280_temperature;BME280_humidity;BME280_pressure;Samples;Min_cycle;Max_cycle;Signal;HPM_P1;HPM_P2
2022/07/08 00:00:09;;;;;;;0.28;0.10;;;;;;;28.05;42.03;100722.13;4930580;29;20069;-66
2022/07/08 00:02:34;;;;;;;1.27;0.10;;;;;;;28.04;41.74;100721.31;4937308;29;20063;-66
2022/07/08 00:04:59;;;;;;;0.38;0.00;;;;;;;28.04;42.01;100717.84;4932743;29;20036;-66
2022/07/08 00:07:25;;;;;;;0.05;0.00;;;;;;;28.04;41.68;100726.69;4931729;29;20083;-68
2022/07/08 00:09:51;;;;;;;0.10;0.00;;;;;;;28.04;41.88;100725.88;4932286;29;20040;-66
2022/07/08 00:12:16;;;;;;;0.10;0.00;;;;;;;28.04;41.79;100726.69;4934207;29;20044;-66
2022/07/08 00:14:42;;;;;;;0.10;0.00;;;;;;;28.03;41.36;100725.06;4933706;29;20067;-66
2022/07/08 00:17:07;;;;;;;0.00;0.00;;;;;;;28.04;41.87;100725.88;4932413;29;20087;-66
2022/07/08 00:19:32;;;;;;;0.20;0.00;;;;;;;28.03;41.84;100725.06;4932261;29;20412;-66
2022/07/08 00:21:58;;;;;;;0.35;0.10;;;;;;;28.02;41.69;100731.47;4937835;29;20076;-66
2022/07/08 00:24:23;;;;;;;0.20;0.00;;;;;;;28.00;41.51;100720.22;4934042;29;20035;-66
2022/07/08 00:26:49;;;;;;;0.10;0.00;;;;;;;27.99;41.55;100713.25;4939889;28;20047;-66
2022/07/08 00:29:14;;;;;;;0.45;0.00;;;;;;;27.99;41.07;100729.31;4939530;29;20037;-66
2022/07/08 00:31:40;;;;;;;0.00;0.00;;;;;;;27.98;41.33;100708.13;4931134;29;20449;-66
2022/07/08 00:34:05;;;;;;;0.50;0.00;;;;;;;27.96;41.53;100719.09;4917417;29;20146;-66
2022/07/08 00:36:31;;;;;;;0.30;0.00;;;;;;;27.96;41.33;100713.75;4931276;29;20551;-67
2022/07/08 00:38:57;;;;;;;0.75;0.00;;;;;;;27.96;41.26;100724.47;4932561;29;20532;-66
2022/07/08 00:41:23;;;;;;;0.80;0.00;;;;;;;27.96;41.18;100719.09;4941430;29;20416;-66
2022/07/08 00:43:49;;;;;;;0.00;0.00;;;;;;;27.97;41.28;100733.31;4931843;29;20094;-66
2022/07/08 00:46:16;;;;;;;0.10;0.00;;;;;;;27.97;41.17;100725.25;4938444;29;20024;-66
2022/07/08 00:48:42;;;;;;;0.10;0.00;;;;;;;27.96;41.23;100727.13;4932095;29;20035;-67
2022/07/08 00:51:11;;;;;;;0.10;0.00;;;;;;;27.96;41.37;100729.81;4931642;29;20436;-66
2022/07/08 00:53:40;;;;;;;0.10;0.00;;;;;;;27.97;41.42;100731.44;4932419;29;20062;-66
2022/07/08 00:56:07;;;;;;;0.30;0.03;;;;;;;27.95;41.13;100730.88;4932588;29;20118;-66
2022/07/08 00:58:34;;;;;;;1.20;0.00;;;;;;;27.96;40.79;100723.66;4931582;29;20101;-66
2022/07/08 01:00:59;;;;;;;0.10;0.00;;;;;;;27.95;40.96;100732.75;4932587;29;20936;-67
2022/07/08 01:03:25;;;;;;;1.00;0.00;;;;;;;27.95;41.07;100728.19;4933137;29;20027;-66
2022/07/08 01:05:50;;;;;;;1.75;0.03;;;;;;;27.95;40.96;100727.38;4931824;29;20423;-66
2022/07/08 01:08:16;;;;;;;0.10;0.00;;;;;;;27.95;41.14;100733.56;4931698;29;20405;-66
2022/07/08 01:10:41;;;;;;;0.98;0.00;;;;;;;27.96;41.02;100726.31;4931244;29;20082;-66
2022/07/08 01:13:07;;;;;;;0.10;0.00;;;;;;;27.95;40.99;100722.84;4933487;29;20392;-66
2022/07/08 01:15:33;;;;;;;0.63;0.00;;;;;;;27.96;40.92;100727.13;4932276;29;20071;-66
2022/07/08 01:17:59;;;;;;;0.20;0.00;;;;;;;27.97;40.62;100719.91;4931485;29;20031;-66
2022/07/08 01:20:25;;;;;;;1.20;0.10;;;;;;;27.96;40.64;100712.94;4932130;29;20407;-66
2022/07/08 01:22:50;;;;;;;1.90;0.00;;;;;;;27.96;40.47;100715.63;4932348;29;20040;-66
2022/07/08 01:25:16;;;;;;;0.30;0.00;;;;;;;27.96;40.72;100716.44;4932202;29;20031;-66
2022/07/08 01:27:41;;;;;;;1.20;0.00;;;;;;;27.96;40.54;100724.47;4930518;29;20058;-66
2022/07/08 01:30:08;;;;;;;1.40;0.00;;;;;;;27.97;40.50;100727.94;4932523;29;20388;-66
2022/07/08 01:32:36;;;;;;;0.57;0.10;;;;;;;27.96;40.33;100713.75;4931025;29;20035;-66
2022/07/08 01:35:03;;;;;;;0.15;0.00;;;;;;;27.95;40.81;100712.13;4930732;29;20027;-65
2022/07/08 01:37:28;;;;;;;0.10;0.00;;;;;;;27.94;40.70;100723.09;4930633;29;20039;-66
2022/07/08 01:39:54;;;;;;;0.10;0.00;;;;;;;27.94;40.66;100728.44;4932915;29;20031;-66
2022/07/08 01:42:19;;;;;;;0.45;0.00;;;;;;;27.94;40.93;100726.56;4930387;29;20032;-66
2022/07/08 01:44:45;;;;;;;0.17;0.00;;;;;;;27.93;40.97;100726.81;4935291;29;20023;-66
2022/07/08 01:47:10;;;;;;;0.38;0.05;;;;;;;27.93;40.85;100727.63;4933164;29;20035;-66
2022/07/08 01:49:36;;;;;;;0.35;0.00;;;;;;;27.92;40.94;100730.56;4933940;29;20019;-66
2022/07/08 01:52:02;;;;;;;0.93;0.00;;;;;;;27.91;40.93;100737.78;4933287;29;20382;-66
2022/07/08 01:54:27;;;;;;;0.10;0.00;;;;;;;27.92;40.71;100733.25;4930082;29;20126;-65
2022/07/08 01:57:13;;;;;;;1.38;0.10;;;;;;;27.90;40.95;100733.50;4930393;29;20040;-66
2022/07/08 01:59:38;;;;;;;0.20;0.10;;;;;;;27.89;40.95;100734.56;4930173;29;20035;-65
2022/07/08 02:02:04;;;;;;;0.80;0.10;;;;;;;27.89;41.15;100736.44;4930724;29;20381;-65
2022/07/08 02:04:29;;;;;;;0.10;0.00;;;;;;;27.87;40.81;100736.72;4930136;29;20459;-66
2022/07/08 02:06:55;;;;;;;0.20;0.00;;;;;;;27.86;41.04;100728.94;4932600;29;20035;-66
2022/07/08 02:09:20;;;;;;;0.10;0.00;;;;;;;27.86;40.94;100734.28;4931058;29;20091;-66
2022/07/08 02:14:29;;;;;;;0.10;0.00;;;;;;;27.83;40.93;100757.00;4930225;29;20160;-65
2022/07/08 02:16:55;;;;;;;0.03;0.00;;;;;;;27.84;40.85;100757.81;4929069;29;20047;-66
2022/07/08 02:19:20;;;;;;;0.40;0.00;;;;;;;27.83;40.79;100751.66;4930091;29;20032;-65
2022/07/08 02:21:46;;;;;;;1.73;0.05;;;;;;;27.84;40.76;100763.97;4934934;29;20319;-66
2022/07/08 02:24:11;;;;;;;0.20;0.03;;;;;;;27.84;41.11;100757.81;4928443;29;20032;-67
2022/07/08 02:26:37;;;;;;;0.98;0.10;;;;;;;27.84;40.76;100755.94;4934099;29;20047;-66
2022/07/08 02:29:02;;;;;;;2.75;0.00;;;;;;;27.84;40.92;100758.63;4929455;29;20065;-66
2022/07/08 02:31:27;;;;;;;0.40;0.10;;;;;;;27.85;40.79;100754.09;4930007;29;20178;-65
2022/07/08 02:33:53;;;;;;;0.57;0.00;;;;;;;27.85;40.74;100754.91;4930045;29;20383;-66
2022/07/08 02:36:18;;;;;;;0.40;0.00;;;;;;;27.86;41.28;100764.53;4936568;29;20038;-67
2022/07/08 02:38:44;;;;;;;0.68;0.00;;;;;;;27.87;40.66;100760.00;4931469;29;20035;-66
2022/07/08 02:41:09;;;;;;;1.08;0.00;;;;;;;27.87;40.57;100751.97;4931197;29;20543;-65
2022/07/08 02:43:34;;;;;;;0.10;0.10;;;;;;;27.86;41.09;100764.53;4931447;29;20171;-66
2022/07/08 02:46:00;;;;;;;1.77;0.00;;;;;;;27.88;40.54;100764.28;4929766;29;20040;-66
2022/07/08 02:48:25;;;;;;;0.10;0.00;;;;;;;27.87;40.67;100760.00;4937236;29;20027;-66
2022/07/08 02:50:51;;;;;;;1.65;0.00;;;;;;;27.85;40.55;100757.56;4929472;29;20024;-66
2022/07/08 02:53:16;;;;;;;0.10;0.00;;;;;;;27.84;40.64;100753.28;4931334;29;20031;-66
2022/07/08 02:55:41;;;;;;;0.08;0.00;;;;;;;27.83;40.61;100762.38;4927286;29;20126;-66
2022/07/08 02:58:07;;;;;;;1.15;0.00;;;;;;;27.81;40.93;100772.50;4929131;29;20540;-68
2022/07/08 03:00:33;;;;;;;0.30;0.00;;;;;;;27.80;41.05;100776.25;4930024;29;20035;-66
2022/07/08 03:02:58;;;;;;;0.10;0.00;;;;;;;27.79;40.67;100774.63;4930601;29;20043;-65
2022/07/08 03:05:24;;;;;;;0.35;0.00;;;;;;;27.79;40.51;100776.50;4929762;29;20036;-66
2022/07/08 03:07:49;;;;;;;0.13;0.00;;;;;;;27.78;40.91;100774.88;4930715;29;20106;-66
2022/07/08 03:10:15;;;;;;;0.15;0.00;;;;;;;27.76;40.59;100780.47;4931304;29;20449;-66
2022/07/08 03:12:40;;;;;;;0.38;0.00;;;;;;;27.75;40.96;100782.34;4929070;29;20118;-66
2022/07/08 03:15:06;;;;;;;0.22;0.00;;;;;;;27.75;40.58;100786.91;4931185;29;20167;-66
2022/07/08 03:17:31;;;;;;;0.10;0.00;;;;;;;27.75;40.78;100789.56;4929620;29;20358;-66
2022/07/08 03:19:57;;;;;;;1.60;0.10;;;;;;;27.74;40.43;100787.97;4929428;29;20034;-66
2022/07/08 03:22:22;;;;;;;0.10;0.00;;;;;;;27.73;40.93;100794.38;4931826;29;20032;-66
2022/07/08 03:24:47;;;;;;;0.00;0.00;;;;;;;27.72;40.92;100800.78;4930255;29;20061;-66
2022/07/08 03:27:13;;;;;;;0.05;0.00;;;;;;;27.71;40.73;100799.97;4929832;29;20044;-66
2022/07/08 03:29:38;;;;;;;0.10;0.00;;;;;;;27.72;40.82;100792.75;4929171;29;20067;-66
2022/07/08 03:32:04;;;;;;;1.58;0.00;;;;;;;27.73;40.81;100802.41;4929381;29;20035;-66
2022/07/08 03:34:29;;;;;;;1.17;0.00;;;;;;;27.76;40.79;100807.25;4929224;29;20534;-66
2022/07/08 03:36:55;;;;;;;2.08;0.00;;;;;;;27.76;40.50;100807.25;4930556;29;20078;-66
2022/07/08 03:39:20;;;;;;;0.30;0.10;;;;;;;27.76;40.54;100801.91;4929831;29;20403;-66
2022/07/08 03:41:45;;;;;;;0.85;0.00;;;;;;;27.77;40.82;100810.75;4933753;29;20479;-65
2022/07/08 03:44:11;;;;;;;0.10;0.00;;;;;;;27.77;40.51;100811.56;4933845;29;20090;-66
2022/07/08 03:46:37;;;;;;;0.35;0.10;;;;;;;27.77;40.37;100811.56;4938046;29;20394;-66
2022/07/08 03:49:02;;;;;;;0.20;0.00;;;;;;;27.78;40.77;100812.38;4935018;29;20026;-66
2022/07/08 03:51:28;;;;;;;0.20;0.03;;;;;;;27.76;40.59;100817.97;4932539;29;20036;-66
2022/07/08 03:53:53;;;;;;;0.43;0.00;;;;;;;27.77;40.96;100819.59;4932608;29;20499;-66
2022/07/08 03:56:19;;;;;;;1.05;0.00;;;;;;;27.77;40.51;100821.44;4933417;28;20035;-66
2022/07/08 03:58:44;;;;;;;0.10;0.00;;;;;;;27.75;40.94;100819.84;4929534;29;20034;-67
2022/07/08 04:01:10;;;;;;;0.10;0.00;;;;;;;27.74;40.58;100818.22;4932498;29;20028;-66
2022/07/08 04:03:35;;;;;;;0.30;0.05;;;;;;;27.73;40.75;100818.47;4932003;29;20040;-66
2022/07/08 04:06:01;;;;;;;0.28;0.05;;;;;;;27.71;40.81;100815.22;4932503;29;20034;-65
2022/07/08 04:08:26;;;;;;;1.20;0.17;;;;;;;27.70;40.83;100818.97;4934667;29;20032;-66
2022/07/08 04:10:52;;;;;;;0.20;0.10;;;;;;;27.69;40.62;100822.69;4934010;29;20043;-66
2022/07/08 04:13:17;;;;;;;0.13;0.03;;;;;;;27.68;40.71;100823.75;4930918;29;20449;-67
2022/07/08 04:15:43;;;;;;;0.20;0.00;;;;;;;27.68;41.01;100831.78;4933117;29;20070;-65
2022/07/08 04:18:08;;;;;;;0.73;0.00;;;;;;;27.67;41.11;100836.31;4931418;29;20075;-65
2022/07/08 04:20:34;;;;;;;2.38;0.00;;;;;;;27.66;40.80;100831.22;4933988;29;20023;-66
2022/07/08 04:22:59;;;;;;;1.00;0.10;;;;;;;27.66;40.97;100837.38;4932190;29;20035;-66
2022/07/08 04:25:24;;;;;;;0.90;0.10;;;;;;;27.65;40.73;100838.44;4937908;29;20465;-66
2022/07/08 04:27:50;;;;;;;1.75;0.10;;;;;;;27.65;40.68;100843.78;4939206;29;20059;-66
2022/07/08 04:30:15;;;;;;;0.17;0.00;;;;;;;27.66;41.04;100841.91;4931113;29;20032;-66
2022/07/08 04:32:41;;;;;;;0.20;0.00;;;;;;;27.66;40.69;100855.31;4933566;29;20111;-66
2022/07/08 04:35:07;;;;;;;0.63;0.10;;;;;;;27.67;40.77;100860.41;4931956;29;20047;-66
2022/07/08 04:37:32;;;;;;;0.60;0.10;;;;;;;27.67;40.90;100862.28;4934670;29;20158;-66
2022/07/08 04:39:58;;;;;;;0.43;0.10;;;;;;;27.67;40.87;100859.59;4941120;29;20149;-66
2022/07/08 04:42:24;;;;;;;2.00;0.05;;;;;;;27.67;40.97;100864.97;4933434;29;20055;-66
2022/07/08 04:44:50;;;;;;;0.17;0.03;;;;;;;27.67;40.69;100860.41;4932715;29;20075;-66
2022/07/08 04:47:16;;;;;;;0.45;0.10;;;;;;;27.69;40.76;100860.16;4935806;29;20054;-66
2022/07/08 04:49:42;;;;;;;1.95;0.20;;;;;;;27.70;40.43;100861.78;4932681;29;20031;-66
2022/07/08 04:52:07;;;;;;;0.80;0.10;;;;;;;27.71;40.44;100866.91;4931110;29;20122;-66
2022/07/08 04:54:34;;;;;;;1.00;0.10;;;;;;;27.72;40.43;100867.69;4932961;29;20058;-66
2022/07/08 04:56:59;;;;;;;2.47;0.10;;;;;;;27.72;40.48;100865.03;4932211;29;20126;-67
2022/07/08 04:59:25;;;;;;;0.20;0.10;;;;;;;27.72;40.21;100863.16;4931586;29;20142;-66
2022/07/08 05:01:50;;;;;;;0.45;0.10;;;;;;;27.71;40.78;100866.91;4931968;29;20551;-66
2022/07/08 05:04:15;;;;;;;0.55;0.10;;;;;;;27.72;40.60;100867.69;4934612;29;20462;-66
2022/07/08 05:06:41;;;;;;;1.25;0.10;;;;;;;27.71;40.44;100871.44;4931421;29;20038;-66
2022/07/08 05:09:07;;;;;;;1.48;0.10;;;;;;;27.72;40.35;100873.06;4937399;29;20522;-65
2022/07/08 05:11:32;;;;;;;1.02;0.20;;;;;;;27.70;40.84;100877.84;4929916;29;20043;-66
2022/07/08 05:13:57;;;;;;;2.10;0.22;;;;;;;27.70;40.61;100881.34;4932449;29;20388;-66
2022/07/08 05:16:23;;;;;;;3.15;0.20;;;;;;;27.68;40.31;100875.41;4931827;29;20036;-66
2022/07/08 05:18:48;;;;;;;2.05;0.20;;;;;;;27.67;40.46;100870.31;4932718;29;20027;-66
2022/07/08 05:21:14;;;;;;;2.17;0.25;;;;;;;27.67;40.52;100878.34;4933862;29;20027;-66
2022/07/08 05:23:39;;;;;;;0.60;0.30;;;;;;;27.66;40.52;100884.75;4932758;28;20039;-66
2022/07/08 05:26:04;;;;;;;0.93;0.15;;;;;;;27.66;40.54;100885.56;4931920;29;20042;-66
2022/07/08 05:28:30;;;;;;;2.88;0.30;;;;;;;27.66;40.29;100880.22;4931913;29;20035;-66
2022/07/08 05:30:55;;;;;;;3.03;0.20;;;;;;;27.66;40.57;100884.75;4930877;29;20131;-66
2022/07/08 05:33:21;;;;;;;1.95;0.30;;;;;;;27.66;40.42;100879.41;4930455;29;20123;-66
2022/07/08 05:35:46;;;;;;;1.25;0.20;;;;;;;27.67;40.84;100875.66;4931133;29;20601;-66
2022/07/08 05:38:11;;;;;;;1.65;0.20;;;;;;;27.66;40.26;100880.22;4930557;29;20035;-66
2022/07/08 05:40:38;;;;;;;1.35;0.20;;;;;;;27.66;40.28;100884.75;4931252;29;20036;-66
2022/07/08 05:43:04;;;;;;;1.80;0.15;;;;;;;27.67;40.59;100889.03;4934121;28;20040;-66
2022/07/08 05:45:29;;;;;;;0.90;0.10;;;;;;;27.67;40.25;100889.03;4921122;29;20039;-65
2022/07/08 05:47:54;;;;;;;1.17;0.20;;;;;;;27.66;40.40;100887.44;4930889;29;20154;-66
2022/07/08 05:50:20;;;;;;;1.27;0.20;;;;;;;27.65;40.32;100891.16;4931496;29;20036;-66
2022/07/08 05:52:45;;;;;;;1.13;0.10;;;;;;;27.65;40.47;100891.16;4930425;29;20036;-66
2022/07/08 05:55:11;;;;;;;2.40;0.10;;;;;;;27.65;40.78;100899.19;4930460;29;20027;-66
2022/07/08 05:57:36;;;;;;;1.00;0.20;;;;;;;27.64;40.37;100903.72;4931768;29;20075;-67
2022/07/08 06:00:03;;;;;;;0.85;0.20;;;;;;;27.64;40.60;100898.38;4929745;29;20547;-67
2022/07/08 06:02:28;;;;;;;2.42;0.10;;;;;;;27.65;40.43;100900.00;4929110;29;20380;-66
2022/07/08 06:04:54;;;;;;;1.25;0.10;;;;;;;27.64;40.22;100903.72;4929379;29;20027;-67
2022/07/08 06:07:19;;;;;;;2.70;0.25;;;;;;;27.63;40.25;100906.66;4929853;29;20042;-67
2022/07/08 06:09:45;;;;;;;0.95;0.10;;;;;;;27.63;40.11;100903.97;4931260;29;20028;-66
2022/07/08 06:12:11;;;;;;;4.50;0.20;;;;;;;27.61;40.45;100911.44;4931407;29;20475;-66
2022/07/08 06:14:36;;;;;;;2.30;0.15;;;;;;;27.59;40.47;100906.34;4930469;29;20032;-66
2022/07/08 06:17:02;;;;;;;2.25;0.13;;;;;;;27.59;40.74;100913.56;4926214;29;20050;-66
2022/07/08 06:19:27;;;;;;;0.47;0.10;;;;;;;27.57;40.70;100912.97;4930079;29;20058;-66
2022/07/08 06:21:52;;;;;;;3.05;0.10;;;;;;;27.54;40.50;100911.56;4932527;29;20090;-66
2022/07/08 06:24:18;;;;;;;0.32;0.10;;;;;;;27.54;40.56;100908.09;4931114;29;20032;-66
2022/07/08 06:26:43;;;;;;;0.40;0.10;;;;;;;27.55;40.23;100904.38;4929793;29;20053;-66
2022/07/08 06:29:10;;;;;;;0.30;0.10;;;;;;;27.56;40.34;100912.16;4935613;29;20040;-66
2022/07/08 06:31:38;;;;;;;1.23;0.10;;;;;;;27.55;40.39;100915.06;4928672;29;20429;-67
2022/07/08 06:34:04;;;;;;;2.30;0.10;;;;;;;27.51;40.10;100904.03;4930459;29;20039;-66
2022/07/08 06:36:29;;;;;;;0.20;0.10;;;;;;;27.47;40.26;100918.97;4934893;29;20449;-66
2022/07/08 06:38:54;;;;;;;0.35;0.00;;;;;;;27.46;39.94;100920.03;4930436;29;20042;-66
2022/07/08 06:41:20;;;;;;;1.92;0.10;;;;;;;27.46;40.29;100920.03;4931409;29;20027;-66
2022/07/08 06:43:46;;;;;;;1.77;0.20;;;;;;;27.47;40.20;100923.50;4936397;29;20129;-66
2022/07/08 06:46:12;;;;;;;0.65;0.10;;;;;;;27.43;39.60;100926.66;4928381;29;20484;-66
2022/07/08 06:48:38;;;;;;;0.70;0.10;;;;;;;27.42;39.78;100925.03;4928735;29;20031;-67
2022/07/08 06:51:03;;;;;;;0.40;0.10;;;;;;;27.33;39.86;100923.88;4932283;29;20034;-66
2022/07/08 06:54:34;;;;;;;1.30;0.10;;;;;;;27.31;39.78;100925.97;4929084;29;20110;-66
2022/07/08 06:56:14;;;;;;;;;;;;;;;27.15;39.61;100932.13;4929588;29;20128;-68
2022/07/08 06:58:39;;;;;;;1.45;0.20;;;;;;;27.19;40.08;100932.44;4913314;29;20009;-66
2022/07/08 07:01:05;;;;;;;0.22;0.10;;;;;;;27.23;39.98;100934.41;4930264;29;20071;-66
2022/07/08 07:03:30;;;;;;;1.73;0.10;;;;;;;27.25;39.63;100934.97;4928670;29;20075;-66
2022/07/08 07:05:56;;;;;;;0.45;0.10;;;;;;;27.25;40.29;100940.31;4926877;29;20027;-66
2022/07/08 07:08:21;;;;;;;2.08;0.10;;;;;;;27.26;40.26;100938.44;4929707;29;20035;-65
2022/07/08 07:10:46;;;;;;;3.70;0.52;;;;;;;27.25;40.11;100932.28;4930710;29;20032;-66
2022/07/08 07:13:13;;;;;;;0.47;0.10;;;;;;;27.28;40.85;100931.00;4927444;29;20028;-66
2022/07/08 07:15:38;;;;;;;1.98;0.10;;;;;;;27.39;41.19;100935.47;4932885;29;20035;-66
2022/07/08 07:18:03;;;;;;;1.75;0.10;;;;;;;27.41;40.71;100938.69;4933319;29;20042;-66
2022/07/08 07:20:29;;;;;;;0.65;0.15;;;;;;;27.38;40.26;100939.19;4936057;29;20031;-66
2022/07/08 07:22:54;;;;;;;1.52;0.20;;;;;;;27.31;39.46;100939.34;4932801;29;20438;-66
2022/07/08 07:25:20;;;;;;;0.40;0.10;;;;;;;27.29;39.86;100943.31;4934103;29;20114;-66
2022/07/08 07:27:45;;;;;;;1.05;0.13;;;;;;;27.29;39.60;100941.44;4931696;29;20052;-67
2022/07/08 07:30:11;;;;;;;0.93;0.10;;;;;;;27.32;40.00;100935.63;4935439;29;20384;-67
2022/07/08 07:32:37;;;;;;;0.77;0.10;;;;;;;27.32;39.84;100943.66;4930379;29;20108;-66
2022/07/08 07:35:02;;;;;;;0.77;0.10;;;;;;;27.31;40.12;100935.84;4931927;29;20032;-66
2022/07/08 07:37:28;;;;;;;1.15;0.10;;;;;;;27.31;40.07;100936.66;4933105;29;20038;-66
2022/07/08 07:39:53;;;;;;;4.38;0.45;;;;;;;27.31;40.40;100936.66;4934479;29;20474;-66
2022/07/08 07:42:19;;;;;;;0.80;0.10;;;;;;;27.32;40.13;100938.28;4930104;29;21166;-66
2022/07/08 07:44:44;;;;;;;0.70;0.15;;;;;;;27.34;40.48;100941.53;4938675;29;20497;-68
2022/07/08 07:47:10;;;;;;;0.65;0.10;;;;;;;27.33;40.43;100936.44;4928696;29;20174;-67
2022/07/08 07:49:35;;;;;;;2.47;0.20;;;;;;;27.32;40.47;100938.28;4931981;29;20035;-68
2022/07/08 07:52:01;;;;;;;1.08;0.10;;;;;;;27.34;40.80;100941.53;4935796;29;20400;-66
2022/07/08 07:54:26;;;;;;;0.50;0.10;;;;;;;27.37;40.81;100933.03;4932444;29;20041;-66
2022/07/08 07:56:51;;;;;;;0.82;0.10;;;;;;;27.38;40.67;100940.00;4931171;29;20032;-67
2022/07/08 07:59:17;;;;;;;1.40;0.10;;;;;;;27.36;40.79;100935.94;4933054;29;20036;-67
2022/07/08 08:01:42;;;;;;;0.15;0.08;;;;;;;27.33;40.60;100939.91;4932393;29;20090;-68
2022/07/08 08:04:08;;;;;;;0.17;0.10;;;;;;;27.31;40.47;100939.34;4932539;29;20440;-67
2022/07/08 08:06:33;;;;;;;5.07;0.20;;;;;;;27.28;40.24;100942.50;4946161;29;20035;-67
2022/07/08 08:08:58;;;;;;;1.73;0.10;;;;;;;27.28;40.46;100942.50;4931231;29;20032;-67
2022/07/08 08:11:24;;;;;;;0.82;0.10;;;;;;;27.28;40.84;100942.50;4933971;29;20473;-66
2022/07/08 08:13:49;;;;;;;0.98;0.10;;;;;;;27.30;40.43;100947.63;4934038;29;20030;-67
2022/07/08 08:16:15;;;;;;;1.50;0.17;;;;;;;27.31;40.53;100942.03;4932746;29;20035;-67
2022/07/08 08:18:40;;;;;;;0.80;0.10;;;;;;;27.29;39.79;100949.47;4932239;29;20035;-67
2022/07/08 08:21:05;;;;;;;0.52;0.20;;;;;;;27.23;39.42;100945.09;4936582;29;20480;-67
2022/07/08 08:23:31;;;;;;;0.17;0.08;;;;;;;27.18;39.75;100945.00;4930531;29;20057;-67
2022/07/08 08:25:56;;;;;;;0.28;0.10;;;;;;;27.18;39.64;100942.34;4932247;29;20024;-67
2022/07/08 08:28:22;;;;;;;0.73;0.10;;;;;;;27.21;39.56;100946.38;4937467;29;20038;-67
2022/07/08 08:30:47;;;;;;;0.40;0.10;;;;;;;27.23;39.65;100950.44;4931542;29;20035;-67
2022/07/08 08:33:12;;;;;;;2.05;0.20;;;;;;;27.23;39.37;100945.09;4934020;29;20090;-67
2022/07/08 08:35:38;;;;;;;4.75;0.00;;;;;;;27.16;39.24;100939.09;4930926;29;20044;-67
2022/07/08 08:38:03;;;;;;;4.22;0.10;;;;;;;27.18;39.29;100953.03;4933563;29;20031;-67
2022/07/08 08:40:30;;;;;;;1.75;0.10;;;;;;;27.21;39.27;100952.56;4932913;29;20086;-67
2022/07/08 08:42:55;;;;;;;0.70;0.10;;;;;;;27.22;39.38;100964.88;4933583;29;20038;-67
2022/07/08 08:45:21;;;;;;;1.20;0.10;;;;;;;27.21;39.37;100949.88;4931627;29;20036;-67
2022/07/08 08:47:47;;;;;;;9.07;0.20;;;;;;;27.16;38.97;100946.31;4931091;29;20032;-67
2022/07/08 08:53:01;;;;;;;0.73;0.03;;;;;;;27.08;39.20;100950.19;4931804;29;20058;-67
2022/07/08 08:55:33;;;;;;;0.57;0.10;;;;;;;27.10;39.21;100956.09;4931272;29;20039;-67
2022/07/08 08:58:03;;;;;;;3.35;0.10;;;;;;;27.13;39.35;100955.63;4925064;29;20162;-67
2022/07/08 09:00:30;;;;;;;0.50;0.10;;;;;;;27.17;39.35;100955.94;4938915;29;20479;-66
2022/07/08 09:02:57;;;;;;;1.65;0.10;;;;;;;27.18;39.43;100958.38;4940006;29;20051;-68
2022/07/08 09:05:23;;;;;;;0.55;0.13;;;;;;;27.19;39.02;100959.19;4933542;29;20055;-67
2022/07/08 09:07:49;;;;;;;0.30;0.10;;;;;;;27.17;39.40;100950.59;4926004;29;20389;-66
2022/07/08 09:10:15;;;;;;;2.47;0.00;;;;;;;27.13;39.09;100950.28;4934024;29;20036;-67
2022/07/08 09:13:10;;;;;;;0.10;0.00;;;;;;;27.08;38.93;100951.00;4931255;29;20051;-66
2022/07/08 09:15:43;;;;;;;0.10;0.00;;;;;;;26.97;38.86;100951.06;4927137;29;20401;-66
2022/07/08 09:18:14;;;;;;;0.22;0.10;;;;;;;26.96;38.66;100949.44;4932898;29;20774;-66
2022/07/08 09:20:48;;;;;;;0.70;0.03;;;;;;;26.98;38.54;100955.34;4935957;29;20586;-67
2022/07/08 09:23:18;;;;;;;1.10;0.10;;;;;;;27.03;38.68;100947.41;4931455;29;20075;-66
2022/07/08 09:25:55;;;;;;;1.17;0.05;;;;;;;27.05;38.40;100942.66;4932063;29;20046;-66
2022/07/08 09:28:37;;;;;;;0.30;0.10;;;;;;;27.06;38.62;100946.94;4930116;29;20118;-66
2022/07/08 09:31:06;;;;;;;0.32;0.03;;;;;;;27.08;38.98;100942.16;4932347;29;20051;-67
2022/07/08 09:33:32;;;;;;;0.10;0.00;;;;;;;27.11;38.81;100941.69;4930841;29;20374;-67
2022/07/08 09:36:01;;;;;;;0.10;0.00;;;;;;;27.11;38.82;100941.69;4931816;29;20043;-66
2022/07/08 09:38:35;;;;;;;1.63;0.05;;;;;;;27.06;38.48;100944.25;4930890;28;20063;-67
2022/07/08 09:41:05;;;;;;;0.10;0.00;;;;;;;27.02;38.56;100946.63;4930958;29;20160;-67
2022/07/08 09:43:32;;;;;;;0.10;0.00;;;;;;;27.02;38.63;100951.16;4930319;29;20059;-67
2022/07/08 09:46:07;;;;;;;0.15;0.00;;;;;;;27.03;38.74;100942.88;4930778;29;20032;-67
2022/07/08 09:48:33;;;;;;;;;;;;;;;26.96;37.69;100946.75;4930922;29;20062;-67
2022/07/08 09:51:07;;;;;;;0.22;0.00;;;;;;;26.97;38.01;100938.50;4930670;29;19919;-67
2022/07/08 09:53:33;;;;;;;0.70;0.00;;;;;;;27.01;38.13;100936.16;4932803;29;20046;-67
2022/07/08 09:56:00;;;;;;;0.57;0.00;;;;;;;27.04;37.91;100927.66;4931539;29;20036;-67
2022/07/08 09:58:28;;;;;;;0.28;0.00;;;;;;;27.06;38.06;100930.91;4930298;29;20385;-67
2022/07/08 10:00:55;;;;;;;0.55;0.00;;;;;;;27.09;37.97;100928.56;4930480;29;20127;-66
2022/07/08 10:03:22;;;;;;;1.95;0.00;;;;;;;27.10;38.43;100932.03;4930364;29;20138;-67
2022/07/08 10:05:48;;;;;;;0.75;0.30;;;;;;;27.11;38.66;100925.63;4910113;29;20529;-67
2022/07/08 10:08:15;;;;;;;0.30;0.00;;;;;;;27.12;38.12;100921.91;4924885;29;20028;-67
2022/07/08 10:10:43;;;;;;;0.28;0.05;;;;;;;27.14;38.57;100925.16;4928715;29;20047;-67
2022/07/08 10:13:09;;;;;;;1.13;0.15;;;;;;;27.16;38.57;100927.59;4930374;29;20098;-67
2022/07/08 10:15:36;;;;;;;0.15;0.00;;;;;;;27.15;38.27;100926.78;4931108;29;20043;-67
2022/07/08 10:18:22;;;;;;;0.22;0.00;;;;;;;27.15;38.30;100920.63;4913569;29;20035;-67
2022/07/08 10:20:55;;;;;;;;;;;;;;;27.09;38.54;100922.38;4929382;29;20054;-67
2022/07/08 10:23:38;;;;;;;1.98;0.00;;;;;;;27.10;38.40;100930.16;4930175;29;19968;-67
2022/07/08 10:26:06;;;;;;;2.38;0.00;;;;;;;27.12;38.29;100919.22;4931108;29;20032;-67
2022/07/08 10:28:35;;;;;;;0.10;0.00;;;;;;;27.14;38.10;100919.81;4933075;29;20439;-67
2022/07/08 10:31:01;;;;;;;0.40;0.00;;;;;;;27.16;38.51;100917.69;4931403;29;20031;-67
2022/07/08 10:33:29;;;;;;;0.17;0.00;;;;;;;27.19;38.49;100919.88;4929951;29;20039;-67
2022/07/08 10:36:07;;;;;;;0.15;0.00;;;;;;;27.12;37.98;100921.09;4930575;29;20036;-67
2022/07/08 10:38:37;;;;;;;1.10;0.00;;;;;;;27.10;37.98;100916.00;4927975;29;20047;-67
2022/07/08 10:41:08;;;;;;;1.33;0.10;;;;;;;27.11;38.18;100920.28;4930597;29;20032;-68
2022/07/08 10:43:34;;;;;;;0.20;0.00;;;;;;;27.12;37.83;100916.56;4930262;29;20035;-67
2022/07/08 10:46:14;;;;;;;0.20;0.00;;;;;;;27.13;37.81;100931.56;4930604;29;20469;-68
2022/07/08 10:48:40;;;;;;;0.65;0.00;;;;;;;27.11;37.98;100930.97;4935040;29;20032;-67
2022/07/08 10:51:26;;;;;;;1.00;0.10;;;;;;;27.13;37.98;100920.84;4934186;29;20039;-67
2022/07/08 10:54:01;;;;;;;0.05;0.00;;;;;;;27.11;37.78;100914.94;4926700;29;20044;-67
2022/07/08 10:56:46;;;;;;;0.20;0.05;;;;;;;27.10;37.99;100913.31;4933628;29;20043;-67
2022/07/08 10:59:28;;;;;;;1.98;0.00;;;;;;;27.09;37.89;100917.03;4933777;29;20448;-67
2022/07/08 11:02:06;;;;;;;2.03;0.00;;;;;;;27.10;37.95;100913.31;4932450;29;20127;-68
2022/07/08 11:04:35;;;;;;;0.00;0.00;;;;;;;27.13;38.15;100923.53;4925471;29;20542;-67
2022/07/08 11:07:28;;;;;;;0.10;0.00;;;;;;;27.13;38.17;100912.84;4931712;29;20049;-67
2022/07/08 11:10:11;;;;;;;1.15;0.00;;;;;;;27.12;38.30;100911.22;4936181;29;20492;-67
2022/07/08 11:12:46;;;;;;;0.25;0.00;;;;;;;27.14;38.28;100917.13;4931092;29;20035;-67
2022/07/08 11:15:16;;;;;;;2.20;0.00;;;;;;;27.16;38.44;100912.34;4932359;29;20042;-68
2022/07/08 11:17:43;;;;;;;1.25;0.00;;;;;;;27.19;38.69;100908.38;4934313;29;20095;-67
2022/07/08 11:20:11;;;;;;;1.25;0.00;;;;;;;27.20;38.32;100908.13;4933437;29;20122;-67
2022/07/08 11:22:39;;;;;;;0.93;0.00;;;;;;;27.20;38.11;100902.78;4935084;29;20059;-67
2022/07/08 11:25:06;;;;;;;2.17;0.10;;;;;;;27.22;38.33;100907.91;4933330;29;20050;-67
2022/07/08 11:27:35;;;;;;;0.00;0.00;;;;;;;27.22;38.18;100905.22;4933813;29;20060;-67
2022/07/08 11:30:05;;;;;;;0.10;0.00;;;;;;;27.21;38.04;100907.09;4931855;29;20177;-67